QTR1390 HRYR-OTHH
Flight info
| Callsign | QTR1390 |
|---|---|
| Flight time | N/A |
| Altitude | 35000 |
| Route | ALSAR1D ALSAR UL432 GWZ UM308 TEXOK/N0456F370 UM308 KONET UG650 RASKA/N0457F360 T513 EGMEG/N0449F370 T513 JDW T532 KSA N687 KINIB Z511 GISRA L681 ORLEK |
| Aircraft | A320/M-SDE1FGHIJ1M1RWY/LB1 |
Departure
| Time | 2026-04-17 13:11 |
|---|---|
| Airport | Kigali International Airport (HRYR) |
Arrival
| Time | N/A |
|---|---|
| Airport | Hamad International Airport (OTHH) |
| Time | Latitude | Longitude | Altitude | Speed | Heading |
|---|---|---|---|---|---|
| 2026-04-17 12:43 | -1.96443 | 30.13430 | 4887 ft | 0 kts | 325° |
| 2026-04-17 13:00 | -1.96457 | 30.13440 | 4886 ft | 3 kts | 325° |
| 2026-04-17 13:00 | -1.96472 | 30.13450 | 4884 ft | 3 kts | 325° |
| 2026-04-17 13:01 | -1.96486 | 30.13460 | 4888 ft | 3 kts | 325° |
| 2026-04-17 13:01 | -1.96500 | 30.13470 | 4884 ft | 3 kts | 325° |
| 2026-04-17 13:01 | -1.96515 | 30.13480 | 4886 ft | 3 kts | 325° |
| 2026-04-17 13:01 | -1.96529 | 30.13490 | 4890 ft | 3 kts | 325° |
| 2026-04-17 13:02 | -1.96543 | 30.13500 | 4889 ft | 2 kts | 346° |
| 2026-04-17 13:02 | -1.96560 | 30.13502 | 4888 ft | 3 kts | 356° |
| 2026-04-17 13:02 | -1.96578 | 30.13504 | 4890 ft | 3 kts | 356° |
| 2026-04-17 13:02 | -1.96595 | 30.13505 | 4889 ft | 3 kts | 356° |
| 2026-04-17 13:03 | -1.96612 | 30.13507 | 4886 ft | 2 kts | 309° |
| 2026-04-17 13:03 | -1.96618 | 30.13521 | 4883 ft | 0 kts | 276° |
| 2026-04-17 13:06 | -1.96616 | 30.13508 | 4885 ft | 6 kts | 275° |
| 2026-04-17 13:06 | -1.96609 | 30.13446 | 4891 ft | 9 kts | 278° |
| 2026-04-17 13:07 | -1.96598 | 30.13373 | 4891 ft | 13 kts | 279° |
| 2026-04-17 13:07 | -1.96582 | 30.13275 | 4890 ft | 15 kts | 279° |
| 2026-04-17 13:07 | -1.96563 | 30.13166 | 4885 ft | 17 kts | 280° |
| 2026-04-17 13:07 | -1.96547 | 30.13047 | 4884 ft | 12 kts | 260° |
| 2026-04-17 13:08 | -1.96604 | 30.12987 | 4884 ft | 12 kts | 219° |
| 2026-04-17 13:08 | -1.96671 | 30.12932 | 4883 ft | 13 kts | 224° |
| 2026-04-17 13:08 | -1.96670 | 30.12834 | 4881 ft | 17 kts | 280° |
| 2026-04-17 13:08 | -1.96648 | 30.12711 | 4879 ft | 18 kts | 280° |
| 2026-04-17 13:09 | -1.96627 | 30.12592 | 4883 ft | 17 kts | 280° |
| 2026-04-17 13:09 | -1.96615 | 30.12480 | 4885 ft | 16 kts | 260° |
| 2026-04-17 13:09 | -1.96632 | 30.12402 | 4885 ft | 9 kts | 293° |
| 2026-04-17 13:09 | -1.96597 | 30.12408 | 4881 ft | 5 kts | 72° |
| 2026-04-17 13:10 | -1.96598 | 30.12428 | 4885 ft | 0 kts | 98° |
| 2026-04-17 13:10 | -1.96599 | 30.12434 | 4885 ft | 6 kts | 98° |
| 2026-04-17 13:10 | -1.96638 | 30.12658 | 4882 ft | 68 kts | 100° |
| 2026-04-17 13:11 | -1.96758 | 30.13334 | 4888 ft | 129 kts | 100° |
| 2026-04-17 13:11 | -1.96944 | 30.14394 | 4884 ft | 178 kts | 99° |
| 2026-04-17 13:11 | -1.97175 | 30.15681 | 5369 ft | 187 kts | 102° |
| 2026-04-17 13:11 | -1.97407 | 30.16957 | 6258 ft | 190 kts | 100° |
| 2026-04-17 13:12 | -1.97634 | 30.18306 | 6532 ft | 206 kts | 98° |
| 2026-04-17 13:12 | -1.97916 | 30.21355 | 6993 ft | 235 kts | 72° |
| 2026-04-17 13:12 | -1.96959 | 30.22741 | 7230 ft | 259 kts | 37° |
| 2026-04-17 13:13 | -1.95379 | 30.23730 | 7634 ft | 273 kts | 32° |
| 2026-04-17 13:13 | -1.93747 | 30.24737 | 8266 ft | 277 kts | 36° |
| 2026-04-17 13:13 | -1.92263 | 30.25976 | 8940 ft | 279 kts | 44° |
| 2026-04-17 13:13 | -1.90903 | 30.27346 | 9612 ft | 282 kts | 47° |
| 2026-04-17 13:14 | -1.89555 | 30.28800 | 10142 ft | 291 kts | 47° |
| 2026-04-17 13:14 | -1.88132 | 30.30348 | 10268 ft | 312 kts | 47° |
| 2026-04-17 13:14 | -1.86597 | 30.31995 | 10388 ft | 333 kts | 47° |
| 2026-04-17 13:14 | -1.84966 | 30.33715 | 10649 ft | 346 kts | 46° |
| 2026-04-17 13:15 | -1.83299 | 30.35443 | 11094 ft | 352 kts | 46° |
| 2026-04-17 13:15 | -1.81579 | 30.37208 | 11636 ft | 355 kts | 45° |
| 2026-04-17 13:15 | -1.79835 | 30.38986 | 12185 ft | 358 kts | 45° |
| 2026-04-17 13:15 | -1.78080 | 30.40771 | 12718 ft | 361 kts | 45° |
| 2026-04-17 13:16 | -1.76332 | 30.42550 | 13269 ft | 363 kts | 45° |
| 2026-04-17 13:16 | -1.74548 | 30.44368 | 13786 ft | 367 kts | 45° |
| 2026-04-17 13:16 | -1.72751 | 30.46206 | 14262 ft | 370 kts | 46° |
| 2026-04-17 13:16 | -1.70966 | 30.48033 | 14687 ft | 374 kts | 46° |
| 2026-04-17 13:17 | -1.69137 | 30.49905 | 15159 ft | 376 kts | 46° |
| 2026-04-17 13:17 | -1.67300 | 30.51785 | 15561 ft | 380 kts | 46° |
| 2026-04-17 13:17 | -1.65449 | 30.53678 | 16018 ft | 382 kts | 46° |
| 2026-04-17 13:17 | -1.63571 | 30.55597 | 16414 ft | 386 kts | 46° |
| 2026-04-17 13:18 | -1.61702 | 30.57504 | 16862 ft | 388 kts | 46° |
| 2026-04-17 13:18 | -1.59813 | 30.59433 | 17294 ft | 390 kts | 46° |
| 2026-04-17 13:18 | -1.57901 | 30.61387 | 17713 ft | 393 kts | 46° |
| 2026-04-17 13:18 | -1.55995 | 30.63336 | 18100 ft | 396 kts | 46° |
| 2026-04-17 13:19 | -1.54050 | 30.65323 | 18468 ft | 399 kts | 46° |
| 2026-04-17 13:19 | -1.52102 | 30.67312 | 18828 ft | 401 kts | 46° |
| 2026-04-17 13:19 | -1.50170 | 30.69285 | 19153 ft | 404 kts | 46° |
| 2026-04-17 13:19 | -1.48198 | 30.71301 | 19517 ft | 405 kts | 46° |
| 2026-04-17 13:20 | -1.46215 | 30.73329 | 19854 ft | 408 kts | 47° |
| 2026-04-17 13:20 | -1.44232 | 30.75367 | 20179 ft | 410 kts | 48° |
| 2026-04-17 13:20 | -1.42272 | 30.77456 | 20489 ft | 413 kts | 49° |
| 2026-04-17 13:20 | -1.40334 | 30.79583 | 20826 ft | 415 kts | 49° |
| 2026-04-17 13:21 | -1.38416 | 30.81711 | 21133 ft | 417 kts | 49° |
| 2026-04-17 13:21 | -1.36456 | 30.83880 | 21460 ft | 420 kts | 49° |
| 2026-04-17 13:21 | -1.34484 | 30.86047 | 21771 ft | 422 kts | 49° |
| 2026-04-17 13:21 | -1.32494 | 30.88219 | 22090 ft | 424 kts | 49° |
| 2026-04-17 13:22 | -1.30508 | 30.90377 | 22399 ft | 426 kts | 49° |
| 2026-04-17 13:22 | -1.28496 | 30.92561 | 22748 ft | 427 kts | 49° |
| 2026-04-17 13:22 | -1.26477 | 30.94755 | 23062 ft | 429 kts | 49° |
| 2026-04-17 13:22 | -1.24445 | 30.96965 | 23369 ft | 431 kts | 49° |
| 2026-04-17 13:23 | -1.22415 | 30.99176 | 23669 ft | 432 kts | 49° |
| 2026-04-17 13:23 | -1.20403 | 31.01368 | 23908 ft | 433 kts | 49° |
| 2026-04-17 13:23 | -1.18352 | 31.03604 | 24158 ft | 435 kts | 49° |
| 2026-04-17 13:23 | -1.16292 | 31.05844 | 24392 ft | 437 kts | 49° |
| 2026-04-17 13:24 | -1.14258 | 31.08055 | 24614 ft | 438 kts | 49° |
| 2026-04-17 13:24 | -1.12192 | 31.10301 | 24849 ft | 440 kts | 49° |
| 2026-04-17 13:24 | -1.10115 | 31.12566 | 25080 ft | 441 kts | 49° |
| 2026-04-17 13:24 | -1.08038 | 31.14836 | 25308 ft | 443 kts | 49° |
| 2026-04-17 13:25 | -1.05957 | 31.17109 | 25535 ft | 444 kts | 49° |
| 2026-04-17 13:25 | -1.03853 | 31.19401 | 25747 ft | 446 kts | 49° |
| 2026-04-17 13:25 | -1.01782 | 31.21652 | 25966 ft | 447 kts | 49° |
| 2026-04-17 13:25 | -0.99669 | 31.23954 | 26196 ft | 449 kts | 49° |
| 2026-04-17 13:26 | -0.97601 | 31.26298 | 26426 ft | 450 kts | 50° |
| 2026-04-17 13:26 | -0.95572 | 31.28703 | 26632 ft | 452 kts | 51° |
| 2026-04-17 13:26 | -0.93573 | 31.31136 | 26826 ft | 454 kts | 52° |
| 2026-04-17 13:26 | -0.91590 | 31.33566 | 27021 ft | 455 kts | 52° |
| 2026-04-17 13:27 | -0.89574 | 31.36030 | 27224 ft | 457 kts | 52° |
| 2026-04-17 13:27 | -0.87545 | 31.38489 | 27428 ft | 459 kts | 51° |
| 2026-04-17 13:27 | -0.85493 | 31.40951 | 27611 ft | 460 kts | 51° |
| 2026-04-17 13:27 | -0.83448 | 31.43382 | 27784 ft | 462 kts | 51° |
| 2026-04-17 13:28 | -0.81361 | 31.45853 | 27973 ft | 464 kts | 51° |
| 2026-04-17 13:28 | -0.79292 | 31.48295 | 28153 ft | 465 kts | 51° |
| 2026-04-17 13:28 | -0.77193 | 31.50776 | 28323 ft | 467 kts | 51° |
| 2026-04-17 13:28 | -0.75111 | 31.53250 | 28501 ft | 469 kts | 51° |
| 2026-04-17 13:29 | -0.72999 | 31.55765 | 28647 ft | 471 kts | 51° |
| 2026-04-17 13:29 | -0.70890 | 31.58281 | 28817 ft | 472 kts | 51° |
| 2026-04-17 13:29 | -0.68794 | 31.60783 | 28984 ft | 474 kts | 51° |
| 2026-04-17 13:29 | -0.66666 | 31.63322 | 29151 ft | 475 kts | 51° |
| 2026-04-17 13:30 | -0.64514 | 31.65836 | 29399 ft | 475 kts | 50° |
| 2026-04-17 13:30 | -0.62318 | 31.68321 | 29620 ft | 476 kts | 49° |
| 2026-04-17 13:30 | -0.60104 | 31.70774 | 29847 ft | 476 kts | 49° |
| 2026-04-17 13:30 | -0.57894 | 31.73201 | 30058 ft | 476 kts | 49° |
| 2026-04-17 13:31 | -0.55666 | 31.75653 | 30250 ft | 476 kts | 49° |
| 2026-04-17 13:31 | -0.53438 | 31.78114 | 30461 ft | 475 kts | 49° |
| 2026-04-17 13:31 | -0.51226 | 31.80571 | 30676 ft | 475 kts | 49° |
| 2026-04-17 13:31 | -0.49056 | 31.82993 | 30956 ft | 472 kts | 50° |
| 2026-04-17 13:32 | -0.46868 | 31.85446 | 31199 ft | 471 kts | 49° |
| 2026-04-17 13:32 | -0.44689 | 31.87893 | 31431 ft | 470 kts | 49° |
| 2026-04-17 13:32 | -0.42511 | 31.90338 | 31651 ft | 469 kts | 50° |
| 2026-04-17 13:32 | -0.40366 | 31.92744 | 31884 ft | 468 kts | 49° |
| 2026-04-17 13:33 | -0.38192 | 31.95176 | 32104 ft | 468 kts | 49° |
| 2026-04-17 13:33 | -0.36010 | 31.97612 | 32322 ft | 467 kts | 49° |
| 2026-04-17 13:33 | -0.33857 | 32.00016 | 32544 ft | 467 kts | 49° |
| 2026-04-17 13:33 | -0.31690 | 32.02437 | 32780 ft | 466 kts | 49° |
| 2026-04-17 13:34 | -0.29552 | 32.04830 | 32979 ft | 465 kts | 49° |
| 2026-04-17 13:34 | -0.27395 | 32.07243 | 33207 ft | 465 kts | 49° |
| 2026-04-17 13:34 | -0.25242 | 32.09648 | 33477 ft | 463 kts | 49° |
| 2026-04-17 13:34 | -0.23097 | 32.12047 | 33754 ft | 461 kts | 49° |
| 2026-04-17 13:35 | -0.20959 | 32.14436 | 33989 ft | 460 kts | 49° |
| 2026-04-17 13:35 | -0.18826 | 32.16819 | 34192 ft | 460 kts | 49° |
| 2026-04-17 13:35 | -0.16693 | 32.19200 | 34374 ft | 459 kts | 49° |
| 2026-04-17 13:35 | -0.14580 | 32.21560 | 34565 ft | 459 kts | 49° |
| 2026-04-17 13:36 | -0.12454 | 32.23937 | 34749 ft | 458 kts | 49° |
| 2026-04-17 13:36 | -0.10319 | 32.26327 | 34860 ft | 459 kts | 49° |
| 2026-04-17 13:36 | -0.06064 | 32.31091 | 34889 ft | 458 kts | 49° |
| 2026-04-17 13:37 | -0.01831 | 32.35823 | 34898 ft | 458 kts | 49° |
| 2026-04-17 13:37 | 0.02434 | 32.40577 | 34974 ft | 459 kts | 49° |
| 2026-04-17 13:38 | 0.06685 | 32.45302 | 34976 ft | 459 kts | 48° |
| 2026-04-17 13:38 | 0.11156 | 32.49916 | 34975 ft | 460 kts | 46° |
| 2026-04-17 13:39 | 0.15668 | 32.54404 | 34956 ft | 460 kts | 46° |
| 2026-04-17 13:39 | 0.20174 | 32.58955 | 34933 ft | 460 kts | 47° |
| 2026-04-17 13:40 | 0.24635 | 32.63530 | 34908 ft | 460 kts | 47° |
| 2026-04-17 13:40 | 0.29123 | 32.68121 | 34882 ft | 460 kts | 47° |
| 2026-04-17 13:41 | 0.33581 | 32.72677 | 34876 ft | 461 kts | 46° |
| 2026-04-17 13:41 | 0.38078 | 32.77263 | 34876 ft | 461 kts | 46° |
| 2026-04-17 13:42 | 0.42567 | 32.81848 | 34867 ft | 461 kts | 46° |
| 2026-04-17 13:42 | 0.47046 | 32.86424 | 34867 ft | 462 kts | 46° |
| 2026-04-17 13:43 | 0.51550 | 32.91021 | 34859 ft | 462 kts | 46° |
| 2026-04-17 13:43 | 0.56021 | 32.95589 | 34860 ft | 462 kts | 47° |
| 2026-04-17 13:44 | 0.60523 | 33.00192 | 34859 ft | 463 kts | 47° |
| 2026-04-17 13:44 | 0.65032 | 33.04789 | 34858 ft | 463 kts | 47° |
| 2026-04-17 13:45 | 0.69517 | 33.09368 | 34867 ft | 462 kts | 46° |
| 2026-04-17 13:45 | 0.73998 | 33.13951 | 34870 ft | 461 kts | 47° |
| 2026-04-17 13:46 | 0.78482 | 33.18535 | 34859 ft | 461 kts | 46° |
| 2026-04-17 13:46 | 0.82970 | 33.23113 | 34853 ft | 462 kts | 46° |
| 2026-04-17 13:47 | 0.86721 | 33.26941 | 34859 ft | 462 kts | 46° |
| 2026-04-17 13:47 | 0.91223 | 33.31542 | 34850 ft | 463 kts | 46° |
| 2026-04-17 13:48 | 0.95720 | 33.36147 | 34843 ft | 463 kts | 46° |
| 2026-04-17 13:48 | 1.00202 | 33.40729 | 34853 ft | 462 kts | 46° |
| 2026-04-17 13:49 | 1.04715 | 33.45333 | 34856 ft | 461 kts | 46° |
| 2026-04-17 13:49 | 1.09182 | 33.49894 | 34861 ft | 461 kts | 46° |
| 2026-04-17 13:50 | 1.13672 | 33.54485 | 34858 ft | 461 kts | 46° |
| 2026-04-17 13:50 | 1.18129 | 33.59046 | 34852 ft | 461 kts | 46° |
| 2026-04-17 13:51 | 1.22620 | 33.63636 | 34854 ft | 461 kts | 46° |
| 2026-04-17 13:51 | 1.27103 | 33.68223 | 34855 ft | 460 kts | 46° |
| 2026-04-17 13:52 | 1.31562 | 33.72778 | 34851 ft | 460 kts | 46° |
| 2026-04-17 13:52 | 1.36048 | 33.77350 | 34851 ft | 459 kts | 46° |
| 2026-04-17 13:53 | 1.40501 | 33.81899 | 34844 ft | 459 kts | 46° |
| 2026-04-17 13:53 | 1.44951 | 33.86458 | 34843 ft | 459 kts | 46° |
| 2026-04-17 13:54 | 1.51651 | 33.93323 | 34847 ft | 459 kts | 46° |
| 2026-04-17 13:55 | 1.58309 | 34.00140 | 34844 ft | 458 kts | 46° |
| 2026-04-17 13:56 | 1.67249 | 34.09255 | 34834 ft | 458 kts | 46° |
| 2026-04-17 13:56 | 1.71679 | 34.13772 | 34835 ft | 458 kts | 46° |
| 2026-04-17 13:57 | 1.76157 | 34.18352 | 34841 ft | 458 kts | 46° |
| 2026-04-17 13:58 | 1.82821 | 34.25178 | 34835 ft | 457 kts | 48° |
| 2026-04-17 13:58 | 1.89093 | 34.32336 | 34836 ft | 455 kts | 52° |
| 2026-04-17 13:59 | 1.95170 | 34.39637 | 34812 ft | 457 kts | 51° |
| 2026-04-17 14:00 | 1.99285 | 34.44454 | 34808 ft | 458 kts | 50° |
| 2026-04-17 14:00 | 2.03458 | 34.49290 | 34809 ft | 459 kts | 51° |
| 2026-04-17 14:01 | 2.07600 | 34.54107 | 34823 ft | 458 kts | 51° |
| 2026-04-17 14:01 | 2.11755 | 34.58959 | 34825 ft | 458 kts | 52° |
| 2026-04-17 14:02 | 2.15911 | 34.63826 | 34835 ft | 458 kts | 50° |
| 2026-04-17 14:02 | 2.20035 | 34.68637 | 34833 ft | 458 kts | 50° |
| 2026-04-17 14:03 | 2.24202 | 34.73487 | 34841 ft | 459 kts | 51° |
| 2026-04-17 14:03 | 2.28348 | 34.78321 | 34848 ft | 458 kts | 51° |
| 2026-04-17 14:04 | 2.32502 | 34.83174 | 34848 ft | 458 kts | 51° |
| 2026-04-17 14:04 | 2.36620 | 34.87988 | 34858 ft | 458 kts | 51° |
| 2026-04-17 14:05 | 2.40748 | 34.92820 | 34849 ft | 458 kts | 51° |
| 2026-04-17 14:05 | 2.44912 | 34.97637 | 34842 ft | 458 kts | 46° |
| 2026-04-17 14:06 | 2.49491 | 35.02076 | 34847 ft | 458 kts | 45° |
| 2026-04-17 14:06 | 2.54086 | 35.06504 | 34816 ft | 458 kts | 46° |
| 2026-04-17 14:07 | 2.58673 | 35.10935 | 34809 ft | 458 kts | 45° |
| 2026-04-17 14:07 | 2.63268 | 35.15374 | 34791 ft | 459 kts | 45° |
| 2026-04-17 14:08 | 2.67834 | 35.19785 | 34795 ft | 459 kts | 45° |
| 2026-04-17 14:08 | 2.72443 | 35.24239 | 34797 ft | 459 kts | 45° |
| 2026-04-17 14:09 | 2.77017 | 35.28662 | 34789 ft | 459 kts | 46° |
| 2026-04-17 14:09 | 2.81622 | 35.33105 | 34792 ft | 458 kts | 45° |
| 2026-04-17 14:10 | 2.86182 | 35.37506 | 34789 ft | 458 kts | 45° |
| 2026-04-17 14:10 | 2.90772 | 35.41933 | 34786 ft | 458 kts | 45° |
| 2026-04-17 14:11 | 2.95353 | 35.46369 | 34786 ft | 458 kts | 46° |
| 2026-04-17 14:11 | 2.99933 | 35.50812 | 34787 ft | 458 kts | 45° |
| 2026-04-17 14:12 | 3.04513 | 35.55242 | 34786 ft | 458 kts | 45° |
| 2026-04-17 14:12 | 3.09084 | 35.59642 | 34786 ft | 457 kts | 43° |
| 2026-04-17 14:13 | 3.14367 | 35.63195 | 34783 ft | 459 kts | 29° |
| 2026-04-17 14:13 | 3.17197 | 35.64685 | 34782 ft | 459 kts | 30° |
| 2026-04-17 14:13 | 3.22861 | 35.67643 | 34781 ft | 459 kts | 29° |
| 2026-04-17 14:14 | 3.28501 | 35.70593 | 34776 ft | 459 kts | 30° |
| 2026-04-17 14:14 | 3.34137 | 35.73558 | 34777 ft | 459 kts | 29° |
| 2026-04-17 14:15 | 3.39797 | 35.76544 | 34785 ft | 459 kts | 28° |
| 2026-04-17 14:15 | 3.45463 | 35.79524 | 34788 ft | 458 kts | 28° |
| 2026-04-17 14:16 | 3.51078 | 35.82483 | 34793 ft | 458 kts | 29° |
| 2026-04-17 14:16 | 3.56738 | 35.85457 | 34788 ft | 458 kts | 29° |
| 2026-04-17 14:17 | 3.62352 | 35.88410 | 34790 ft | 458 kts | 28° |
| 2026-04-17 14:17 | 3.68008 | 35.91393 | 34789 ft | 458 kts | 28° |
| 2026-04-17 14:18 | 3.73622 | 35.94354 | 34791 ft | 458 kts | 28° |
| 2026-04-17 14:18 | 3.79277 | 35.97323 | 34783 ft | 459 kts | 28° |
| 2026-04-17 14:19 | 3.84927 | 36.00297 | 34786 ft | 459 kts | 28° |
| 2026-04-17 14:19 | 3.90574 | 36.03278 | 34786 ft | 459 kts | 28° |
| 2026-04-17 14:20 | 3.96217 | 36.06255 | 34784 ft | 459 kts | 28° |
| 2026-04-17 14:20 | 4.01889 | 36.09244 | 34785 ft | 460 kts | 29° |
| 2026-04-17 14:21 | 4.07528 | 36.12226 | 34790 ft | 460 kts | 29° |
| 2026-04-17 14:21 | 4.13194 | 36.15233 | 34790 ft | 460 kts | 29° |
| 2026-04-17 14:22 | 4.18826 | 36.18219 | 34794 ft | 460 kts | 29° |
| 2026-04-17 14:22 | 4.24483 | 36.21216 | 34797 ft | 460 kts | 29° |
| 2026-04-17 14:23 | 4.30146 | 36.24218 | 34796 ft | 460 kts | 29° |
| 2026-04-17 14:23 | 4.35803 | 36.27230 | 34804 ft | 460 kts | 29° |
| 2026-04-17 14:24 | 4.41459 | 36.30251 | 34806 ft | 460 kts | 29° |
| 2026-04-17 14:24 | 4.47081 | 36.33233 | 34805 ft | 460 kts | 29° |
| 2026-04-17 14:25 | 4.52765 | 36.36240 | 34811 ft | 460 kts | 29° |
| 2026-04-17 14:25 | 4.58385 | 36.39223 | 34814 ft | 460 kts | 29° |
| 2026-04-17 14:26 | 4.64055 | 36.42228 | 34812 ft | 460 kts | 29° |
| 2026-04-17 14:26 | 4.69720 | 36.45247 | 34823 ft | 460 kts | 29° |
| 2026-04-17 14:27 | 4.75390 | 36.48261 | 34820 ft | 461 kts | 29° |
| 2026-04-17 14:27 | 4.81023 | 36.51246 | 34835 ft | 460 kts | 29° |
| 2026-04-17 14:28 | 4.86693 | 36.54254 | 34839 ft | 460 kts | 29° |
| 2026-04-17 14:28 | 4.92341 | 36.57254 | 34865 ft | 459 kts | 29° |
| 2026-04-17 14:29 | 4.97985 | 36.60251 | 34865 ft | 458 kts | 29° |
| 2026-04-17 14:29 | 5.03583 | 36.63230 | 34869 ft | 458 kts | 29° |
| 2026-04-17 14:30 | 5.09213 | 36.66225 | 34870 ft | 457 kts | 29° |
| 2026-04-17 14:30 | 5.14837 | 36.69216 | 34877 ft | 457 kts | 29° |
| 2026-04-17 14:31 | 5.20463 | 36.72206 | 34876 ft | 457 kts | 29° |
| 2026-04-17 14:31 | 5.26086 | 36.75196 | 34870 ft | 457 kts | 29° |
| 2026-04-17 14:32 | 5.31682 | 36.78173 | 34873 ft | 457 kts | 29° |
| 2026-04-17 14:32 | 5.37315 | 36.81171 | 34875 ft | 457 kts | 29° |
| 2026-04-17 14:33 | 5.42928 | 36.84163 | 34873 ft | 457 kts | 29° |
| 2026-04-17 14:33 | 5.48533 | 36.87148 | 34880 ft | 457 kts | 29° |
| 2026-04-17 14:34 | 5.54130 | 36.90125 | 34888 ft | 456 kts | 29° |
| 2026-04-17 14:34 | 5.59738 | 36.93116 | 34888 ft | 456 kts | 28° |
| 2026-04-17 14:35 | 5.65351 | 36.96102 | 34900 ft | 456 kts | 29° |
| 2026-04-17 14:35 | 5.70924 | 36.99069 | 34899 ft | 456 kts | 29° |
| 2026-04-17 14:36 | 5.76540 | 37.02053 | 34902 ft | 456 kts | 28° |
| 2026-04-17 14:36 | 5.82154 | 37.05044 | 34900 ft | 457 kts | 29° |
| 2026-04-17 14:37 | 5.87746 | 37.08028 | 34913 ft | 457 kts | 29° |
| 2026-04-17 14:37 | 5.93393 | 37.11047 | 34912 ft | 458 kts | 29° |
| 2026-04-17 14:38 | 5.98998 | 37.14037 | 34922 ft | 458 kts | 28° |
| 2026-04-17 14:38 | 6.04633 | 37.17042 | 34922 ft | 458 kts | 28° |
| 2026-04-17 14:39 | 6.10269 | 37.20045 | 34932 ft | 458 kts | 29° |
| 2026-04-17 14:39 | 6.15876 | 37.23041 | 34933 ft | 458 kts | 29° |
| 2026-04-17 14:40 | 6.21512 | 37.26050 | 34949 ft | 458 kts | 29° |
| 2026-04-17 14:40 | 6.26183 | 37.28542 | 34950 ft | 457 kts | 30° |
| 2026-04-17 14:41 | 6.32733 | 37.32041 | 34942 ft | 457 kts | 29° |
| 2026-04-17 14:41 | 6.37414 | 37.34545 | 34956 ft | 457 kts | 29° |
| 2026-04-17 14:42 | 6.43046 | 37.37559 | 34937 ft | 458 kts | 29° |
| 2026-04-17 14:42 | 6.48643 | 37.40550 | 34934 ft | 458 kts | 28° |
| 2026-04-17 14:43 | 6.54286 | 37.43564 | 34930 ft | 458 kts | 29° |
| 2026-04-17 14:43 | 6.59920 | 37.46578 | 34934 ft | 458 kts | 29° |
| 2026-04-17 14:44 | 6.65552 | 37.49593 | 34930 ft | 458 kts | 28° |
| 2026-04-17 14:44 | 6.71194 | 37.52602 | 34946 ft | 458 kts | 28° |
| 2026-04-17 14:45 | 6.76808 | 37.55600 | 34948 ft | 458 kts | 28° |
| 2026-04-17 14:45 | 6.82437 | 37.58616 | 34947 ft | 458 kts | 28° |
| 2026-04-17 14:46 | 6.88040 | 37.61623 | 34953 ft | 458 kts | 29° |
| 2026-04-17 14:46 | 6.93662 | 37.64638 | 34961 ft | 458 kts | 28° |
| 2026-04-17 14:47 | 6.99269 | 37.67622 | 34983 ft | 457 kts | 28° |
| 2026-04-17 14:47 | 7.04889 | 37.70623 | 34983 ft | 457 kts | 28° |
| 2026-04-17 14:48 | 7.10501 | 37.73633 | 35006 ft | 457 kts | 28° |
| 2026-04-17 14:48 | 7.16115 | 37.76645 | 35006 ft | 457 kts | 28° |
| 2026-04-17 14:49 | 7.21731 | 37.79646 | 35019 ft | 457 kts | 28° |
| 2026-04-17 14:49 | 7.27344 | 37.82649 | 35034 ft | 456 kts | 28° |
| 2026-04-17 14:50 | 7.32954 | 37.85649 | 35053 ft | 456 kts | 28° |
| 2026-04-17 14:50 | 7.38556 | 37.88646 | 35052 ft | 456 kts | 28° |
| 2026-04-17 14:51 | 7.44154 | 37.91648 | 35077 ft | 456 kts | 28° |
| 2026-04-17 14:51 | 7.49754 | 37.94640 | 35070 ft | 455 kts | 27° |
| 2026-04-17 14:52 | 7.55354 | 37.97631 | 35095 ft | 456 kts | 27° |
| 2026-04-17 14:52 | 7.60951 | 38.00641 | 35091 ft | 456 kts | 28° |
| 2026-04-17 14:53 | 7.66586 | 38.03571 | 35118 ft | 456 kts | 26° |
| 2026-04-17 14:53 | 7.72285 | 38.06381 | 35116 ft | 456 kts | 25° |
| 2026-04-17 14:54 | 7.77983 | 38.09185 | 35131 ft | 456 kts | 26° |
| 2026-04-17 14:54 | 7.83674 | 38.12035 | 35134 ft | 456 kts | 26° |
| 2026-04-17 14:55 | 7.89318 | 38.14856 | 35153 ft | 456 kts | 26° |
| 2026-04-17 14:55 | 7.95007 | 38.17697 | 35156 ft | 456 kts | 26° |
| 2026-04-17 14:56 | 8.00692 | 38.20555 | 35184 ft | 456 kts | 25° |
| 2026-04-17 14:56 | 8.06375 | 38.23411 | 35183 ft | 456 kts | 25° |
| 2026-04-17 14:57 | 8.12064 | 38.26269 | 35187 ft | 457 kts | 25° |
| 2026-04-17 14:57 | 8.17753 | 38.29132 | 35184 ft | 457 kts | 25° |
| 2026-04-17 14:58 | 8.23446 | 38.31998 | 35203 ft | 457 kts | 25° |
| 2026-04-17 14:58 | 8.29146 | 38.34860 | 35204 ft | 458 kts | 25° |
| 2026-04-17 14:59 | 8.34853 | 38.37718 | 35197 ft | 458 kts | 25° |
| 2026-04-17 14:59 | 8.40566 | 38.40593 | 35187 ft | 460 kts | 25° |
| 2026-04-17 15:00 | 8.46279 | 38.43544 | 35197 ft | 461 kts | 26° |
| 2026-04-17 15:00 | 8.51987 | 38.46522 | 35199 ft | 462 kts | 26° |
| 2026-04-17 15:01 | 8.57705 | 38.49501 | 35202 ft | 463 kts | 26° |
| 2026-04-17 15:01 | 8.63433 | 38.52472 | 35205 ft | 463 kts | 26° |
| 2026-04-17 15:02 | 8.69168 | 38.55441 | 35216 ft | 463 kts | 26° |
| 2026-04-17 15:02 | 8.74902 | 38.58416 | 35228 ft | 463 kts | 26° |
| 2026-04-17 15:03 | 8.80639 | 38.61400 | 35244 ft | 463 kts | 26° |
| 2026-04-17 15:03 | 8.86332 | 38.64358 | 35257 ft | 463 kts | 26° |
| 2026-04-17 15:04 | 8.92066 | 38.67333 | 35276 ft | 463 kts | 26° |
| 2026-04-17 15:04 | 8.97792 | 38.70310 | 35281 ft | 463 kts | 26° |
| 2026-04-17 15:05 | 9.03521 | 38.73285 | 35285 ft | 463 kts | 26° |
| 2026-04-17 15:05 | 9.09331 | 38.76053 | 35279 ft | 461 kts | 16° |
| 2026-04-17 15:06 | 9.15606 | 38.77143 | 35256 ft | 457 kts | 1° |
| 2026-04-17 15:06 | 9.21973 | 38.77296 | 35247 ft | 458 kts | 1° |
| 2026-04-17 15:07 | 9.28356 | 38.77463 | 35245 ft | 459 kts | 1° |
| 2026-04-17 15:07 | 9.34738 | 38.77635 | 35231 ft | 459 kts | 1° |
| 2026-04-17 15:08 | 9.41118 | 38.77805 | 35225 ft | 459 kts | 1° |
| 2026-04-17 15:08 | 9.47506 | 38.77977 | 35208 ft | 459 kts | 1° |
| 2026-04-17 15:09 | 9.53889 | 38.78155 | 35212 ft | 459 kts | 1° |
| 2026-04-17 15:09 | 9.60227 | 38.78328 | 35192 ft | 459 kts | 1° |
| 2026-04-17 15:10 | 9.66611 | 38.78501 | 35187 ft | 459 kts | 1° |
| 2026-04-17 15:11 | 9.76188 | 38.78757 | 35170 ft | 458 kts | 0° |
| 2026-04-17 15:11 | 9.82560 | 38.78933 | 35151 ft | 457 kts | 1° |
| 2026-04-17 15:12 | 9.88919 | 38.79107 | 35146 ft | 457 kts | 0° |
| 2026-04-17 15:12 | 9.95273 | 38.79286 | 35126 ft | 456 kts | 1° |
| 2026-04-17 15:13 | 10.01618 | 38.79460 | 35121 ft | 456 kts | 1° |
| 2026-04-17 15:13 | 10.07955 | 38.79630 | 35102 ft | 455 kts | 0° |
| 2026-04-17 15:14 | 10.14286 | 38.79802 | 35085 ft | 455 kts | 0° |
| 2026-04-17 15:14 | 10.20616 | 38.79967 | 35080 ft | 455 kts | 0° |
| 2026-04-17 15:15 | 10.26895 | 38.80140 | 35074 ft | 454 kts | 1° |
| 2026-04-17 15:15 | 10.33219 | 38.80316 | 35076 ft | 454 kts | 1° |
| 2026-04-17 15:16 | 10.39536 | 38.80486 | 35078 ft | 454 kts | 1° |
| 2026-04-17 15:16 | 10.45828 | 38.80659 | 35076 ft | 454 kts | 1° |
| 2026-04-17 15:17 | 10.52139 | 38.80852 | 35081 ft | 454 kts | 1° |
| 2026-04-17 15:17 | 10.58452 | 38.81040 | 35081 ft | 453 kts | 1° |
| 2026-04-17 15:18 | 10.64762 | 38.81210 | 35092 ft | 453 kts | 1° |
| 2026-04-17 15:18 | 10.71058 | 38.81388 | 35097 ft | 452 kts | 1° |
| 2026-04-17 15:19 | 10.77353 | 38.81562 | 35092 ft | 452 kts | 1° |
| 2026-04-17 15:19 | 10.83640 | 38.81733 | 35100 ft | 452 kts | 1° |
| 2026-04-17 15:20 | 10.89924 | 38.81895 | 35104 ft | 452 kts | 1° |
| 2026-04-17 15:20 | 10.96208 | 38.82067 | 35095 ft | 451 kts | 1° |
| 2026-04-17 15:21 | 11.02487 | 38.82246 | 35088 ft | 451 kts | 1° |
| 2026-04-17 15:21 | 11.08764 | 38.82422 | 35084 ft | 451 kts | 1° |
| 2026-04-17 15:22 | 11.15002 | 38.82592 | 35087 ft | 451 kts | 1° |
| 2026-04-17 15:22 | 11.21282 | 38.82758 | 35074 ft | 452 kts | 1° |
| 2026-04-17 15:23 | 11.27571 | 38.82927 | 35071 ft | 452 kts | 1° |
| 2026-04-17 15:23 | 11.33868 | 38.83107 | 35070 ft | 453 kts | 1° |
| 2026-04-17 15:24 | 11.40172 | 38.83284 | 35068 ft | 453 kts | 1° |
| 2026-04-17 15:24 | 11.46475 | 38.83460 | 35068 ft | 453 kts | 1° |
| 2026-04-17 15:25 | 11.52782 | 38.83625 | 35065 ft | 453 kts | 1° |
| 2026-04-17 15:25 | 11.59091 | 38.83803 | 35065 ft | 453 kts | 1° |
| 2026-04-17 15:26 | 11.65396 | 38.83982 | 35071 ft | 453 kts | 1° |
| 2026-04-17 15:26 | 11.71704 | 38.84153 | 35071 ft | 454 kts | 1° |
| 2026-04-17 15:27 | 11.78022 | 38.84324 | 35051 ft | 455 kts | 0° |
| 2026-04-17 15:27 | 11.84355 | 38.84500 | 35043 ft | 456 kts | 360° |
| 2026-04-17 15:28 | 11.89628 | 38.84651 | 35041 ft | 456 kts | 1° |
| 2026-04-17 15:28 | 11.95976 | 38.84825 | 35045 ft | 457 kts | 0° |
| 2026-04-17 15:29 | 12.03376 | 38.85030 | 35031 ft | 457 kts | 1° |
| 2026-04-17 15:29 | 12.08705 | 38.85178 | 35022 ft | 457 kts | 0° |
| 2026-04-17 15:30 | 12.15042 | 38.85351 | 35024 ft | 457 kts | 0° |
| 2026-04-17 15:30 | 12.21403 | 38.85524 | 35015 ft | 457 kts | 360° |
| 2026-04-17 15:31 | 12.27763 | 38.85693 | 35021 ft | 457 kts | 360° |
| 2026-04-17 15:31 | 12.34126 | 38.85869 | 35013 ft | 457 kts | 359° |
| 2026-04-17 15:32 | 12.40484 | 38.86026 | 35014 ft | 457 kts | 359° |
| 2026-04-17 15:32 | 12.46849 | 38.86194 | 35000 ft | 457 kts | 360° |
| 2026-04-17 15:33 | 12.53211 | 38.86375 | 34983 ft | 457 kts | 359° |
| 2026-04-17 15:33 | 12.59566 | 38.86556 | 34987 ft | 457 kts | 359° |
| 2026-04-17 15:34 | 12.65924 | 38.86731 | 34975 ft | 457 kts | 359° |
| 2026-04-17 15:34 | 12.72268 | 38.86908 | 34977 ft | 456 kts | 360° |
| 2026-04-17 15:35 | 12.78610 | 38.87086 | 34961 ft | 456 kts | 359° |
| 2026-04-17 15:35 | 12.84950 | 38.87276 | 34957 ft | 455 kts | 360° |
| 2026-04-17 15:36 | 12.91286 | 38.87475 | 34947 ft | 455 kts | 360° |
| 2026-04-17 15:36 | 12.97612 | 38.87638 | 34950 ft | 454 kts | 359° |
| 2026-04-17 15:37 | 13.03936 | 38.87741 | 34952 ft | 454 kts | 359° |
| 2026-04-17 15:37 | 13.10256 | 38.87838 | 34957 ft | 454 kts | 359° |
| 2026-04-17 15:38 | 13.16577 | 38.87935 | 34952 ft | 454 kts | 359° |
| 2026-04-17 15:38 | 13.22891 | 38.88026 | 34954 ft | 454 kts | 359° |
| 2026-04-17 15:39 | 13.29218 | 38.88136 | 34951 ft | 454 kts | 359° |
| 2026-04-17 15:39 | 13.35538 | 38.88256 | 34960 ft | 454 kts | 359° |
| 2026-04-17 15:40 | 13.41863 | 38.88369 | 34966 ft | 454 kts | 358° |
| 2026-04-17 15:40 | 13.48190 | 38.88477 | 34950 ft | 456 kts | 358° |
| 2026-04-17 15:41 | 13.54535 | 38.88590 | 34950 ft | 456 kts | 358° |
| 2026-04-17 15:41 | 13.60893 | 38.88704 | 34948 ft | 457 kts | 358° |
| 2026-04-17 15:42 | 13.67258 | 38.88821 | 34946 ft | 457 kts | 358° |
| 2026-04-17 15:42 | 13.73587 | 38.88935 | 34956 ft | 458 kts | 358° |
| 2026-04-17 15:43 | 13.79960 | 38.89054 | 34962 ft | 458 kts | 358° |
| 2026-04-17 15:43 | 13.86339 | 38.89172 | 34963 ft | 458 kts | 358° |
| 2026-04-17 15:44 | 13.92713 | 38.89289 | 34964 ft | 458 kts | 358° |
| 2026-04-17 15:44 | 13.99083 | 38.89401 | 34956 ft | 458 kts | 358° |
| 2026-04-17 15:45 | 14.05451 | 38.89513 | 34961 ft | 457 kts | 358° |
| 2026-04-17 15:45 | 14.11816 | 38.89586 | 34951 ft | 457 kts | 357° |
| 2026-04-17 15:46 | 14.18176 | 38.89636 | 34943 ft | 457 kts | 357° |
| 2026-04-17 15:46 | 14.24535 | 38.89704 | 34932 ft | 457 kts | 357° |
| 2026-04-17 15:47 | 14.30899 | 38.89775 | 34937 ft | 457 kts | 357° |
| 2026-04-17 15:47 | 14.37254 | 38.89843 | 34920 ft | 456 kts | 357° |
| 2026-04-17 15:48 | 14.43605 | 38.89907 | 34925 ft | 457 kts | 357° |
| 2026-04-17 15:48 | 14.49958 | 38.89980 | 34926 ft | 457 kts | 357° |
| 2026-04-17 15:49 | 14.56309 | 38.90018 | 34920 ft | 456 kts | 356° |
| 2026-04-17 15:49 | 14.62671 | 38.90005 | 34921 ft | 456 kts | 356° |
| 2026-04-17 15:50 | 14.69020 | 38.89991 | 34918 ft | 456 kts | 356° |
| 2026-04-17 15:50 | 14.75370 | 38.90000 | 34918 ft | 456 kts | 357° |
| 2026-04-17 15:51 | 14.81728 | 38.90017 | 34923 ft | 457 kts | 357° |
| 2026-04-17 15:51 | 14.88082 | 38.90029 | 34944 ft | 456 kts | 356° |
| 2026-04-17 15:52 | 14.94427 | 38.90036 | 34947 ft | 456 kts | 356° |
| 2026-04-17 15:52 | 15.00728 | 38.90040 | 34949 ft | 456 kts | 356° |
| 2026-04-17 15:53 | 15.07106 | 38.90045 | 34949 ft | 455 kts | 356° |
| 2026-04-17 15:53 | 15.13400 | 38.90056 | 34961 ft | 455 kts | 356° |
| 2026-04-17 15:54 | 15.19729 | 38.90060 | 34957 ft | 454 kts | 356° |
| 2026-04-17 15:54 | 15.26054 | 38.90055 | 34952 ft | 454 kts | 356° |
| 2026-04-17 15:55 | 15.32372 | 38.90132 | 34937 ft | 455 kts | 358° |
| 2026-04-17 15:55 | 15.38704 | 38.90383 | 34946 ft | 455 kts | 358° |
| 2026-04-17 15:56 | 15.45030 | 38.90662 | 34929 ft | 455 kts | 358° |
| 2026-04-17 15:56 | 15.51352 | 38.90899 | 34923 ft | 454 kts | 358° |
| 2026-04-17 15:57 | 15.57678 | 38.91113 | 34903 ft | 455 kts | 357° |
| 2026-04-17 15:57 | 15.64000 | 38.91332 | 34901 ft | 454 kts | 358° |
| 2026-04-17 15:58 | 15.70313 | 38.91562 | 34882 ft | 454 kts | 358° |
| 2026-04-17 15:58 | 15.76625 | 38.91793 | 34861 ft | 454 kts | 358° |
| 2026-04-17 15:59 | 15.82933 | 38.92023 | 34864 ft | 454 kts | 358° |
| 2026-04-17 15:59 | 15.89241 | 38.92255 | 34846 ft | 453 kts | 358° |
| 2026-04-17 16:00 | 15.95555 | 38.92483 | 34848 ft | 453 kts | 357° |
| 2026-04-17 16:00 | 16.01856 | 38.92707 | 34841 ft | 452 kts | 357° |
| 2026-04-17 16:01 | 16.08106 | 38.92931 | 34841 ft | 452 kts | 357° |
| 2026-04-17 16:01 | 16.14398 | 38.93162 | 34827 ft | 452 kts | 358° |
| 2026-04-17 16:02 | 16.20687 | 38.93390 | 34823 ft | 452 kts | 357° |
| 2026-04-17 16:02 | 16.26998 | 38.93606 | 34822 ft | 452 kts | 357° |
| 2026-04-17 16:03 | 16.33265 | 38.93826 | 34797 ft | 451 kts | 357° |
| 2026-04-17 16:03 | 16.39541 | 38.94064 | 34795 ft | 451 kts | 358° |
| 2026-04-17 16:04 | 16.45779 | 38.94297 | 34796 ft | 451 kts | 357° |
| 2026-04-17 16:04 | 16.52063 | 38.94519 | 34798 ft | 451 kts | 357° |
| 2026-04-17 16:05 | 16.58341 | 38.94746 | 34793 ft | 450 kts | 357° |
| 2026-04-17 16:05 | 16.64612 | 38.94981 | 34788 ft | 450 kts | 357° |
| 2026-04-17 16:06 | 16.70868 | 38.95230 | 34790 ft | 450 kts | 357° |
| 2026-04-17 16:06 | 16.77095 | 38.95465 | 34792 ft | 450 kts | 357° |
| 2026-04-17 16:07 | 16.83349 | 38.95699 | 34789 ft | 450 kts | 357° |
| 2026-04-17 16:07 | 16.89608 | 38.95924 | 34786 ft | 449 kts | 356° |
| 2026-04-17 16:08 | 16.94803 | 38.96110 | 34781 ft | 449 kts | 356° |
| 2026-04-17 16:08 | 17.02101 | 38.96372 | 34776 ft | 449 kts | 357° |
| 2026-04-17 16:09 | 17.08331 | 38.96601 | 34769 ft | 449 kts | 357° |
| 2026-04-17 16:09 | 17.13572 | 38.96791 | 34766 ft | 449 kts | 357° |
| 2026-04-17 16:10 | 17.19792 | 38.97020 | 34770 ft | 449 kts | 357° |
| 2026-04-17 16:10 | 17.26031 | 38.97252 | 34771 ft | 449 kts | 357° |
| 2026-04-17 16:11 | 17.32300 | 38.97488 | 34768 ft | 449 kts | 356° |
| 2026-04-17 16:11 | 17.38518 | 38.97715 | 34765 ft | 449 kts | 356° |
| 2026-04-17 16:12 | 17.44778 | 38.97940 | 34764 ft | 449 kts | 356° |
| 2026-04-17 16:12 | 17.50976 | 38.98153 | 34761 ft | 449 kts | 356° |
| 2026-04-17 16:13 | 17.57217 | 38.98380 | 34766 ft | 448 kts | 356° |
| 2026-04-17 16:13 | 17.63448 | 38.98612 | 34767 ft | 448 kts | 356° |
| 2026-04-17 16:14 | 17.72803 | 38.98936 | 34755 ft | 448 kts | 356° |
| 2026-04-17 16:14 | 17.79002 | 38.99157 | 34753 ft | 447 kts | 356° |
| 2026-04-17 16:15 | 17.85238 | 38.99386 | 34765 ft | 447 kts | 356° |
| 2026-04-17 16:15 | 17.91440 | 38.99605 | 34761 ft | 447 kts | 356° |
| 2026-04-17 16:16 | 17.97661 | 38.99829 | 34754 ft | 447 kts | 356° |
| 2026-04-17 16:16 | 18.03848 | 39.00056 | 34753 ft | 447 kts | 356° |
| 2026-04-17 16:17 | 18.10077 | 39.00288 | 34757 ft | 446 kts | 355° |
| 2026-04-17 16:17 | 18.16285 | 39.00510 | 34751 ft | 446 kts | 355° |
| 2026-04-17 16:18 | 18.22469 | 39.00788 | 34752 ft | 446 kts | 356° |
| 2026-04-17 16:18 | 18.28692 | 39.01147 | 34755 ft | 447 kts | 357° |
| 2026-04-17 16:19 | 18.34882 | 39.01518 | 34758 ft | 447 kts | 356° |
| 2026-04-17 16:19 | 18.41106 | 39.01873 | 34761 ft | 446 kts | 356° |
| 2026-04-17 16:20 | 18.47279 | 39.02210 | 34753 ft | 446 kts | 356° |
| 2026-04-17 16:20 | 18.53503 | 39.02545 | 34757 ft | 446 kts | 356° |
| 2026-04-17 16:21 | 18.59717 | 39.02893 | 34754 ft | 446 kts | 356° |
| 2026-04-17 16:21 | 18.65878 | 39.03231 | 34764 ft | 446 kts | 356° |
| 2026-04-17 16:22 | 18.72064 | 39.03575 | 34757 ft | 446 kts | 356° |
| 2026-04-17 16:22 | 18.78267 | 39.03925 | 34755 ft | 446 kts | 356° |
| 2026-04-17 16:23 | 18.84482 | 39.04276 | 34756 ft | 446 kts | 356° |
| 2026-04-17 16:23 | 18.90655 | 39.04617 | 34765 ft | 446 kts | 356° |
| 2026-04-17 16:24 | 18.96873 | 39.04960 | 34760 ft | 446 kts | 356° |
| 2026-04-17 16:24 | 19.03064 | 39.05301 | 34764 ft | 446 kts | 356° |
| 2026-04-17 16:25 | 19.09269 | 39.05647 | 34766 ft | 446 kts | 355° |
| 2026-04-17 16:25 | 19.15296 | 39.05056 | 34778 ft | 430 kts | 339° |
| 2026-04-17 16:26 | 19.21075 | 39.03404 | 34775 ft | 429 kts | 338° |
| 2026-04-17 16:26 | 19.26851 | 39.01756 | 34767 ft | 429 kts | 338° |
| 2026-04-17 16:27 | 19.32609 | 39.00115 | 34768 ft | 429 kts | 338° |
| 2026-04-17 16:27 | 19.38346 | 38.98485 | 34766 ft | 429 kts | 338° |
| 2026-04-17 16:28 | 19.44115 | 38.96844 | 34780 ft | 429 kts | 338° |
| 2026-04-17 16:28 | 19.49882 | 38.95193 | 34775 ft | 428 kts | 338° |
| 2026-04-17 16:29 | 19.55646 | 38.93545 | 34771 ft | 429 kts | 338° |
| 2026-04-17 16:29 | 19.61377 | 38.91909 | 34769 ft | 429 kts | 338° |
| 2026-04-17 16:30 | 19.67162 | 38.90251 | 34771 ft | 429 kts | 338° |
| 2026-04-17 16:30 | 19.72925 | 38.88599 | 34774 ft | 429 kts | 338° |
| 2026-04-17 16:31 | 19.78681 | 38.86956 | 34778 ft | 429 kts | 338° |
| 2026-04-17 16:31 | 19.84468 | 38.85305 | 34776 ft | 429 kts | 338° |
| 2026-04-17 16:32 | 19.90212 | 38.83652 | 34772 ft | 429 kts | 338° |
| 2026-04-17 16:32 | 19.95947 | 38.82001 | 34770 ft | 429 kts | 338° |
| 2026-04-17 16:33 | 20.01724 | 38.80343 | 34774 ft | 428 kts | 337° |
| 2026-04-17 16:33 | 20.07487 | 38.78684 | 34777 ft | 428 kts | 337° |
| 2026-04-17 16:34 | 20.13238 | 38.77005 | 34776 ft | 427 kts | 337° |
| 2026-04-17 16:34 | 20.18974 | 38.75326 | 34778 ft | 427 kts | 337° |
| 2026-04-17 16:35 | 20.24694 | 38.73676 | 34776 ft | 427 kts | 337° |
| 2026-04-17 16:35 | 20.30411 | 38.72038 | 34791 ft | 427 kts | 337° |
| 2026-04-17 16:36 | 20.36164 | 38.70380 | 34792 ft | 426 kts | 337° |
| 2026-04-17 16:36 | 20.41897 | 38.68718 | 34787 ft | 426 kts | 337° |
| 2026-04-17 16:37 | 20.47604 | 38.67066 | 34783 ft | 426 kts | 337° |
| 2026-04-17 16:37 | 20.53317 | 38.65418 | 34787 ft | 426 kts | 337° |
| 2026-04-17 16:38 | 20.59018 | 38.63765 | 34795 ft | 426 kts | 336° |
| 2026-04-17 16:38 | 20.64746 | 38.62100 | 34789 ft | 425 kts | 336° |
| 2026-04-17 16:39 | 20.70450 | 38.60451 | 34783 ft | 425 kts | 336° |
| 2026-04-17 16:39 | 20.76180 | 38.58785 | 34778 ft | 425 kts | 336° |
| 2026-04-17 16:40 | 20.81939 | 38.57336 | 34777 ft | 435 kts | 346° |
| 2026-04-17 16:40 | 20.85019 | 38.57334 | 34793 ft | 449 kts | 358° |
| 2026-04-17 16:40 | 20.88128 | 38.58027 | 34789 ft | 464 kts | 9° |
| 2026-04-17 16:41 | 20.91121 | 38.59439 | 34778 ft | 478 kts | 22° |
| 2026-04-17 16:41 | 20.93951 | 38.61281 | 34778 ft | 481 kts | 23° |
| 2026-04-17 16:41 | 20.99662 | 38.65042 | 34770 ft | 481 kts | 23° |
| 2026-04-17 16:42 | 21.05373 | 38.68797 | 34769 ft | 481 kts | 23° |
| 2026-04-17 16:42 | 21.11068 | 38.72539 | 34777 ft | 482 kts | 23° |
| 2026-04-17 16:43 | 21.16788 | 38.76294 | 34773 ft | 482 kts | 23° |
| 2026-04-17 16:43 | 21.22488 | 38.80050 | 34772 ft | 482 kts | 23° |
| 2026-04-17 16:44 | 21.28209 | 38.83824 | 34789 ft | 482 kts | 23° |
| 2026-04-17 16:44 | 21.33915 | 38.87592 | 34776 ft | 482 kts | 23° |
| 2026-04-17 16:45 | 21.39637 | 38.91372 | 34766 ft | 482 kts | 23° |
| 2026-04-17 16:45 | 21.45334 | 38.95132 | 34764 ft | 482 kts | 23° |
| 2026-04-17 16:46 | 21.51051 | 38.98919 | 34774 ft | 482 kts | 23° |
| 2026-04-17 16:46 | 21.56746 | 39.02692 | 34768 ft | 482 kts | 23° |
| 2026-04-17 16:47 | 21.62478 | 39.06485 | 34762 ft | 482 kts | 23° |
| 2026-04-17 16:47 | 21.68147 | 39.10247 | 34758 ft | 482 kts | 23° |
| 2026-04-17 16:48 | 21.73623 | 39.14548 | 34757 ft | 493 kts | 33° |
| 2026-04-17 16:48 | 21.78763 | 39.19402 | 34756 ft | 493 kts | 33° |
| 2026-04-17 16:49 | 21.83959 | 39.24270 | 34772 ft | 493 kts | 33° |
| 2026-04-17 16:49 | 21.89104 | 39.29102 | 34769 ft | 493 kts | 33° |
| 2026-04-17 16:50 | 21.94275 | 39.33978 | 34823 ft | 494 kts | 33° |
| 2026-04-17 16:50 | 21.96861 | 39.36416 | 35079 ft | 493 kts | 33° |
| 2026-04-17 16:50 | 21.99457 | 39.38870 | 35359 ft | 493 kts | 33° |
| 2026-04-17 16:51 | 22.02009 | 39.41289 | 35633 ft | 492 kts | 33° |
| 2026-04-17 16:51 | 22.04585 | 39.43732 | 35870 ft | 492 kts | 32° |
| 2026-04-17 16:51 | 22.07156 | 39.46163 | 36107 ft | 491 kts | 32° |
| 2026-04-17 16:51 | 22.09738 | 39.48600 | 36343 ft | 491 kts | 32° |
| 2026-04-17 16:52 | 22.12280 | 39.51001 | 36583 ft | 491 kts | 32° |
| 2026-04-17 16:52 | 22.14859 | 39.53441 | 36783 ft | 491 kts | 32° |
| 2026-04-17 16:52 | 22.19999 | 39.58309 | 36864 ft | 491 kts | 32° |
| 2026-04-17 16:53 | 22.25128 | 39.63178 | 36868 ft | 490 kts | 32° |
| 2026-04-17 16:53 | 22.30219 | 39.68011 | 36896 ft | 490 kts | 32° |
| 2026-04-17 16:54 | 22.35345 | 39.72875 | 36896 ft | 490 kts | 31° |
| 2026-04-17 16:54 | 22.39600 | 39.76918 | 36936 ft | 490 kts | 32° |
| 2026-04-17 16:55 | 22.45580 | 39.82615 | 36934 ft | 489 kts | 32° |
| 2026-04-17 16:55 | 22.50667 | 39.87468 | 36969 ft | 488 kts | 31° |
| 2026-04-17 16:56 | 22.54910 | 39.91516 | 36995 ft | 489 kts | 32° |
| 2026-04-17 16:56 | 22.60019 | 39.96398 | 37005 ft | 489 kts | 32° |
| 2026-04-17 16:57 | 22.65107 | 40.01264 | 37014 ft | 489 kts | 32° |
| 2026-04-17 16:57 | 22.70234 | 40.06165 | 37023 ft | 489 kts | 32° |
| 2026-04-17 16:58 | 22.75317 | 40.11040 | 37032 ft | 489 kts | 32° |
| 2026-04-17 16:58 | 22.80424 | 40.15944 | 37032 ft | 489 kts | 32° |
| 2026-04-17 16:59 | 22.85500 | 40.20810 | 37029 ft | 489 kts | 32° |
| 2026-04-17 16:59 | 22.90610 | 40.25712 | 37049 ft | 489 kts | 32° |
| 2026-04-17 17:00 | 22.95685 | 40.30600 | 37042 ft | 489 kts | 32° |
| 2026-04-17 17:00 | 23.00774 | 40.35512 | 37037 ft | 489 kts | 32° |
| 2026-04-17 17:01 | 23.05879 | 40.40426 | 37026 ft | 489 kts | 32° |
| 2026-04-17 17:01 | 23.10936 | 40.45319 | 37040 ft | 489 kts | 32° |
| 2026-04-17 17:02 | 23.16017 | 40.50260 | 37029 ft | 489 kts | 32° |
| 2026-04-17 17:02 | 23.21102 | 40.55191 | 37020 ft | 489 kts | 32° |
| 2026-04-17 17:03 | 23.26039 | 40.60362 | 37019 ft | 502 kts | 42° |
| 2026-04-17 17:03 | 23.28047 | 40.63470 | 37044 ft | 513 kts | 52° |